Time;durP1;ratioP1;P1;durP2;ratioP2;P2;SDS_P1;SDS_P2;PMS_P1;PMS_P2;Temp;Humidity;BMP_temperature;BMP_pressure;BME280_temperature;BME280_humidity;BME280_pressure;Samples;Min_cycle;Max_cycle;Signal;HPM_P1;HPM_P2
2021/09/18 00:02:08;;;;;;;7.10;6.60;;;;;;;13.51;96.91;98525.14;112252;1194;60942;-83
2021/09/18 00:04:34;;;;;;;6.00;5.00;;;;;;;13.53;96.91;98525.51;112212;1193;65013;-83
2021/09/18 00:07:01;;;;;;;6.40;5.80;;;;;;;13.53;96.73;98526.23;112209;1193;60351;-85
2021/09/18 00:09:28;;;;;;;7.10;5.50;;;;;;;13.52;96.84;98525.17;112271;1194;60227;-85
2021/09/18 00:11:54;;;;;;;6.00;5.30;;;;;;;13.54;96.79;98528.61;112254;1193;65896;-85
2021/09/18 00:14:22;;;;;;;5.70;5.20;;;;;;;13.55;96.94;98531.39;112231;1193;60230;-85
2021/09/18 00:16:49;;;;;;;6.00;5.10;;;;;;;13.57;96.87;98532.64;112226;1193;62635;-83
2021/09/18 00:19:16;;;;;;;6.20;5.00;;;;;;;13.58;96.91;98534.84;112240;1193;60233;-83
2021/09/18 00:21:43;;;;;;;6.80;6.00;;;;;;;13.60;96.95;98533.95;112237;1194;60223;-83
2021/09/18 00:24:09;;;;;;;6.00;5.40;;;;;;;13.61;96.88;98536.70;112225;1193;66154;-85
2021/09/18 00:26:37;;;;;;;7.10;5.20;;;;;;;13.62;96.96;98534.14;112274;1193;60283;-85
2021/09/18 00:29:04;;;;;;;7.20;5.30;;;;;;;13.65;96.90;98535.39;112240;1193;63811;-85
2021/09/18 00:31:31;;;;;;;6.40;5.90;;;;;;;13.65;96.80;98534.06;112244;1194;60214;-85
2021/09/18 00:33:58;;;;;;;7.00;6.20;;;;;;;13.64;96.82;98533.66;112292;1193;60621;-85
2021/09/18 00:36:24;;;;;;;6.30;5.70;;;;;;;13.63;96.75;98533.03;112276;1193;65022;-85
2021/09/18 00:38:51;;;;;;;7.70;6.90;;;;;;;13.64;96.77;98537.55;112252;1187;60945;-85
2021/09/18 00:41:18;;;;;;;8.30;7.50;;;;;;;13.65;96.76;98536.04;112299;1193;63716;-85
2021/09/18 00:43:53;;;;;;;9.20;8.40;;;;;;;13.67;96.83;98537.18;112210;1194;60245;-85
2021/09/18 00:46:21;;;;;;;11.20;10.20;;;;;;;13.66;96.85;98539.02;112205;1196;60291;-85
2021/09/18 00:48:48;;;;;;;10.50;9.60;;;;;;;13.63;96.71;98537.11;112266;1193;66210;-82
2021/09/18 00:51:17;;;;;;;12.80;11.00;;;;;;;13.60;96.50;98541.27;112293;1193;60258;-84
2021/09/18 00:53:45;;;;;;;11.10;10.00;;;;;;;13.57;96.48;98538.85;112241;1193;63991;-85
2021/09/18 00:56:12;;;;;;;11.30;10.20;;;;;;;13.54;96.54;98541.43;112228;1194;60652;-85
2021/09/18 00:58:39;;;;;;;11.00;9.80;;;;;;;13.52;96.50;98540.71;112248;1194;60182;-85
2021/09/18 01:01:06;;;;;;;8.60;7.90;;;;;;;13.51;96.55;98541.75;112351;1193;66195;-84
2021/09/18 01:03:33;;;;;;;9.30;8.30;;;;;;;13.49;96.62;98541.51;112182;1193;68417;-82
2021/09/18 01:06:00;;;;;;;8.00;7.30;;;;;;;13.49;96.85;98542.46;112286;1194;64147;-85
2021/09/18 01:08:29;;;;;;;7.30;6.60;;;;;;;13.49;96.71;98544.55;112258;1194;60287;-85
2021/09/18 01:10:56;;;;;;;6.40;5.70;;;;;;;13.48;96.66;98544.65;112284;1194;60233;-83
2021/09/18 01:13:23;;;;;;;6.90;6.30;;;;;;;13.46;96.61;98543.44;112306;1193;65243;-85
2021/09/18 01:15:50;;;;;;;7.50;6.50;;;;;;;13.46;96.71;98545.35;112262;1196;60232;-84
2021/09/18 01:18:17;;;;;;;6.40;5.40;;;;;;;13.48;96.83;98543.08;112304;1193;62470;-84
2021/09/18 01:20:46;;;;;;;6.70;6.20;;;;;;;13.46;96.66;98543.05;111947;1196;60230;-85
2021/09/18 01:23:21;;;;;;;6.90;5.60;;;;;;;13.44;96.63;98543.23;112311;1193;60191;-85
2021/09/18 01:25:49;;;;;;;6.10;5.40;;;;;;;13.43;96.77;98538.31;112302;1193;63878;-83
2021/09/18 01:28:16;;;;;;;6.60;5.90;;;;;;;13.43;96.91;98535.65;112290;1193;60194;-83
2021/09/18 01:30:44;;;;;;;6.00;5.60;;;;;;;13.44;96.99;98535.39;112262;1193;63820;-84
2021/09/18 01:33:11;;;;;;;6.80;5.40;;;;;;;13.43;96.79;98532.59;112265;1193;60224;-84
2021/09/18 01:35:39;;;;;;;6.40;5.60;;;;;;;13.42;96.86;98531.85;112229;1193;60224;-85
2021/09/18 01:38:06;;;;;;;6.00;5.30;;;;;;;13.41;96.80;98529.43;112255;1193;65267;-83
2021/09/18 01:40:39;;;;;;;5.90;5.30;;;;;;;13.39;96.98;98532.96;112274;1193;60303;-83
2021/09/18 01:43:06;;;;;;;6.10;5.50;;;;;;;13.37;96.85;98530.95;112214;1193;65034;-83
2021/09/18 01:45:34;;;;;;;5.80;5.30;;;;;;;13.36;96.77;98526.44;112208;1195;60315;-83
2021/09/18 01:48:04;;;;;;;6.80;5.60;;;;;;;13.35;96.95;98525.92;112237;1193;60256;-83
2021/09/18 01:50:38;;;;;;;5.50;4.80;;;;;;;13.37;96.99;98524.21;112322;1194;66189;-84
2021/09/18 01:53:07;;;;;;;5.90;5.40;;;;;;;13.36;97.02;98524.98;112326;1187;60169;-83
2021/09/18 01:55:36;;;;;;;5.30;4.80;;;;;;;13.36;97.02;98524.77;112274;1193;63684;-85
2021/09/18 01:58:04;;;;;;;7.60;5.70;;;;;;;13.38;97.17;98524.25;112135;1195;60237;-84
2021/09/18 02:00:56;;;;;;;7.30;6.60;;;;;;;13.39;97.21;98522.09;112340;1193;60597;-83
2021/09/18 02:03:22;;;;;;;9.30;8.40;;;;;;;13.38;96.92;98520.73;112272;1193;66259;-83
2021/09/18 02:05:49;;;;;;;15.60;13.80;;;;;;;13.37;97.09;98522.44;112168;1193;60742;-83
2021/09/18 02:08:16;;;;;;;14.30;12.90;;;;;;;13.34;96.97;98524.23;112105;1196;65084;-83
2021/09/18 02:10:43;;;;;;;14.90;13.50;;;;;;;13.33;96.77;98526.17;112211;1194;60204;-83
2021/09/18 02:13:11;;;;;;;17.00;15.30;;;;;;;13.28;96.76;98521.94;112212;1193;60249;-83
2021/09/18 02:15:39;;;;;;;19.60;17.60;;;;;;;13.26;96.98;98520.69;112226;1194;66382;-83
2021/09/18 02:18:07;;;;;;;21.50;19.30;;;;;;;13.27;96.94;98520.02;112278;1194;60287;-85
2021/09/18 02:20:35;;;;;;;21.90;19.10;;;;;;;13.25;96.86;98517.86;112227;1195;62652;-85
2021/09/18 02:23:03;;;;;;;22.50;18.10;;;;;;;13.23;96.72;98515.41;112258;1193;60162;-84
2021/09/18 02:25:31;;;;;;;14.20;12.90;;;;;;;13.22;96.98;98512.11;112269;1196;60293;-84
2021/09/18 02:27:58;;;;;;;10.10;8.50;;;;;;;13.22;96.92;98513.19;112282;1193;63615;-84
2021/09/18 02:30:31;;;;;;;6.70;6.00;;;;;;;13.22;97.06;98511.92;112202;1196;60365;-84
2021/09/18 02:32:59;;;;;;;7.40;5.30;;;;;;;13.22;97.15;98512.96;112306;1193;63901;-84
2021/09/18 02:35:27;;;;;;;7.20;5.70;;;;;;;13.23;97.10;98514.48;112311;1194;60280;-84
2021/09/18 02:37:56;;;;;;;5.30;4.60;;;;;;;13.23;97.09;98512.73;112283;1193;60191;-84
2021/09/18 02:40:24;;;;;;;5.50;4.40;;;;;;;13.22;96.90;98513.36;112265;1193;65335;-84
2021/09/18 02:42:55;;;;;;;6.30;4.90;;;;;;;13.21;96.96;98510.26;112242;1193;60722;-84
2021/09/18 02:45:22;;;;;;;5.30;4.70;;;;;;;13.20;96.94;98509.73;112157;1196;64003;-84
2021/09/18 02:47:49;;;;;;;6.60;5.00;;;;;;;13.19;97.05;98508.21;112179;1196;60303;-84
2021/09/18 02:50:18;;;;;;;5.30;4.80;;;;;;;13.17;96.87;98511.77;112263;1193;60274;-85
2021/09/18 02:52:46;;;;;;;9.50;5.90;;;;;;;13.13;96.71;98513.00;112292;1194;63866;-84
2021/09/18 02:55:14;;;;;;;8.50;5.90;;;;;;;13.11;96.81;98508.76;112198;1195;60134;-83
2021/09/18 02:57:41;;;;;;;6.90;6.20;;;;;;;13.08;96.75;98506.98;112222;1194;64174;-85
2021/09/18 03:00:09;;;;;;;10.30;7.10;;;;;;;13.05;96.73;98506.05;112294;1193;60226;-84
2021/09/18 03:02:37;;;;;;;8.70;7.60;;;;;;;13.04;96.84;98508.60;112344;1194;60274;-84
2021/09/18 03:05:05;;;;;;;7.20;6.50;;;;;;;13.05;96.81;98510.35;112255;1193;65026;-85
2021/09/18 03:07:32;;;;;;;6.20;5.60;;;;;;;13.05;96.67;98509.27;112270;1194;60128;-85
2021/09/18 03:09:58;;;;;;;7.10;6.00;;;;;;;13.05;96.67;98508.02;112257;1193;62418;-85
2021/09/18 03:12:25;;;;;;;6.40;4.80;;;;;;;13.06;96.77;98509.90;112284;1194;60262;-85
2021/09/18 03:14:52;;;;;;;6.30;5.30;;;;;;;13.05;96.67;98509.61;112244;1188;60107;-85
2021/09/18 03:17:19;;;;;;;7.00;4.40;;;;;;;13.04;96.58;98508.96;112214;1187;65006;-85
2021/09/18 03:19:45;;;;;;;7.40;4.60;;;;;;;13.03;96.66;98504.81;112254;1193;60204;-84
2021/09/18 03:22:12;;;;;;;4.50;4.10;;;;;;;13.02;96.73;98505.56;112177;1196;63988;-84
2021/09/18 03:24:39;;;;;;;5.60;4.90;;;;;;;13.03;96.80;98500.16;112289;1197;60248;-84
2021/09/18 03:27:06;;;;;;;4.60;4.00;;;;;;;13.03;96.73;98501.58;112254;1193;60168;-84
2021/09/18 03:29:32;;;;;;;4.60;4.30;;;;;;;13.02;96.75;98500.76;112265;1193;64887;-84
2021/09/18 03:31:59;;;;;;;7.20;4.90;;;;;;;13.01;96.71;98499.94;112262;1194;60197;-84
2021/09/18 03:34:26;;;;;;;5.80;5.00;;;;;;;13.00;96.85;98503.22;112284;1193;63646;-84
2021/09/18 03:36:52;;;;;;;7.10;5.20;;;;;;;12.99;96.88;98502.98;112258;1196;60915;-84
2021/09/18 03:39:19;;;;;;;9.00;6.60;;;;;;;12.97;96.78;98501.17;112215;1194;62086;-84
2021/09/18 03:41:46;;;;;;;7.80;7.00;;;;;;;12.97;96.90;98499.56;112269;1193;64879;-85
2021/09/18 03:44:12;;;;;;;14.10;12.60;;;;;;;12.98;96.95;98501.63;112300;1193;60255;-85
2021/09/18 03:46:39;;;;;;;22.80;20.40;;;;;;;12.98;96.91;98500.56;112264;1196;62634;-82
2021/09/18 03:49:05;;;;;;;24.90;22.50;;;;;;;12.98;96.92;98499.17;112279;1193;60248;-85
2021/09/18 03:51:32;;;;;;;22.40;19.90;;;;;;;12.97;97.01;98499.73;112324;1194;60283;-84
2021/09/18 03:53:59;;;;;;;21.30;16.70;;;;;;;12.98;96.91;98496.45;112261;1193;64877;-85
2021/09/18 03:56:25;;;;;;;14.10;12.70;;;;;;;12.96;96.74;98491.77;112263;1194;60153;-83
2021/09/18 03:58:52;;;;;;;13.10;11.60;;;;;;;12.94;96.83;98493.17;112208;1196;63674;-83
2021/09/18 04:01:19;;;;;;;7.10;6.40;;;;;;;12.93;96.75;98494.70;112195;1193;60262;-83
2021/09/18 04:03:45;;;;;;;8.20;6.70;;;;;;;12.93;96.61;98495.94;112273;1193;60261;-85
2021/09/18 04:06:12;;;;;;;6.20;5.60;;;;;;;12.94;96.43;98494.29;112248;1193;65243;-84
2021/09/18 04:08:38;;;;;;;6.40;5.30;;;;;;;12.95;96.43;98496.17;112247;1193;60169;-85
2021/09/18 04:11:05;;;;;;;5.50;5.00;;;;;;;12.94;96.14;98502.64;112270;1193;62372;-84
2021/09/18 04:13:31;;;;;;;5.30;4.80;;;;;;;12.93;96.06;98503.85;112158;1194;60257;-84
2021/09/18 04:15:58;;;;;;;6.20;5.10;;;;;;;12.91;96.06;98506.16;112244;1194;60275;-85
2021/09/18 04:18:25;;;;;;;6.30;5.50;;;;;;;12.89;96.02;98507.92;112263;1193;63918;-85
2021/09/18 04:20:51;;;;;;;7.20;6.50;;;;;;;12.88;95.88;98506.20;112262;1193;60104;-84
2021/09/18 04:23:18;;;;;;;9.00;8.30;;;;;;;12.89;95.95;98507.23;112278;1193;63835;-85
2021/09/18 04:25:44;;;;;;;11.90;10.80;;;;;;;12.89;95.92;98509.73;112262;1193;60335;-85
2021/09/18 04:28:11;;;;;;;11.90;10.70;;;;;;;12.89;96.02;98512.34;112288;1193;60169;-85
2021/09/18 04:30:38;;;;;;;12.30;11.20;;;;;;;12.91;96.14;98512.92;112255;1193;65212;-85
2021/09/18 04:33:04;;;;;;;13.10;11.80;;;;;;;12.92;96.06;98511.23;112212;1194;61010;-84
2021/09/18 04:35:31;;;;;;;12.70;11.60;;;;;;;12.93;96.00;98511.54;112255;1193;62652;-84
2021/09/18 04:37:58;;;;;;;12.30;11.10;;;;;;;12.94;96.03;98509.41;112251;1193;60163;-84
2021/09/18 04:40:24;;;;;;;11.20;10.10;;;;;;;12.95;95.95;98511.62;112242;1193;61012;-84
2021/09/18 04:42:51;;;;;;;13.00;11.20;;;;;;;12.98;95.86;98511.23;112250;1194;64918;-84
2021/09/18 04:45:18;;;;;;;13.60;12.40;;;;;;;12.99;95.49;98513.85;112241;1193;60285;-85
2021/09/18 04:47:44;;;;;;;13.30;11.90;;;;;;;13.02;95.45;98515.80;112227;1193;62624;-82
2021/09/18 04:50:11;;;;;;;9.70;8.50;;;;;;;13.06;95.24;98518.78;112276;1193;60262;-83
2021/09/18 04:52:38;;;;;;;6.80;6.20;;;;;;;13.09;94.75;98516.39;112225;1193;60207;-83
2021/09/18 04:55:05;;;;;;;5.50;5.00;;;;;;;13.13;94.23;98516.59;112217;1193;63923;-83
2021/09/18 04:57:32;;;;;;;6.70;5.20;;;;;;;13.14;93.73;98519.14;112258;1194;60224;-83
2021/09/18 04:59:58;;;;;;;5.10;4.60;;;;;;;13.14;93.65;98523.29;112308;1193;64479;-83
2021/09/18 05:02:25;;;;;;;4.10;3.70;;;;;;;13.17;93.81;98525.64;112148;1196;60233;-83
2021/09/18 05:04:51;;;;;;;4.40;4.10;;;;;;;13.20;93.56;98524.90;112241;1193;60163;-83
2021/09/18 05:07:18;;;;;;;6.50;3.90;;;;;;;13.24;93.55;98522.65;112238;1193;65201;-84
2021/09/18 05:09:45;;;;;;;4.90;4.50;;;;;;;13.27;93.44;98524.30;112242;1193;60255;-83
2021/09/18 05:12:11;;;;;;;7.90;7.10;;;;;;;13.30;93.53;98527.79;112269;1193;63667;-83
2021/09/18 05:14:38;;;;;;;7.10;6.50;;;;;;;13.32;92.99;98526.41;112253;1193;60201;-83
2021/09/18 05:17:05;;;;;;;6.70;6.10;;;;;;;13.31;92.87;98527.39;112236;1196;60217;-84
2021/09/18 05:19:32;;;;;;;7.50;6.80;;;;;;;13.30;92.79;98527.81;112236;1193;64176;-84
2021/09/18 05:21:58;;;;;;;5.50;5.10;;;;;;;13.30;92.89;98530.71;112211;1193;60222;-83
2021/09/18 05:24:27;;;;;;;5.50;4.70;;;;;;;13.31;93.08;98529.94;112192;1194;64054;-84
2021/09/18 05:26:53;;;;;;;5.00;4.50;;;;;;;13.34;92.50;98531.45;112226;1193;60220;-83
2021/09/18 05:29:20;;;;;;;4.30;3.90;;;;;;;13.32;92.43;98531.20;112258;1193;60604;-83
2021/09/18 05:31:47;;;;;;;4.00;3.60;;;;;;;13.34;92.45;98533.91;112293;1193;63503;-83
2021/09/18 05:34:13;;;;;;;4.90;4.50;;;;;;;13.37;92.18;98539.91;112288;1193;60296;-84
2021/09/18 05:36:40;;;;;;;4.30;3.70;;;;;;;13.41;92.00;98540.09;112238;1186;64003;-84
2021/09/18 05:39:06;;;;;;;3.50;3.30;;;;;;;13.44;91.80;98539.84;112199;1193;60156;-83
2021/09/18 05:41:33;;;;;;;4.00;3.40;;;;;;;13.50;91.65;98537.00;112231;1193;60188;-83
2021/09/18 05:44:00;;;;;;;3.50;3.20;;;;;;;13.70;91.31;98529.77;112246;1193;63841;-83
2021/09/18 05:46:26;;;;;;;4.30;3.00;;;;;;;13.92;90.87;98535.09;112218;1193;60363;-83
2021/09/18 05:48:53;;;;;;;2.90;2.70;;;;;;;14.06;90.68;98536.21;112298;1193;63861;-83
2021/09/18 05:51:20;;;;;;;3.30;2.80;;;;;;;14.21;90.37;98536.86;112275;1193;60249;-83
2021/09/18 05:53:46;;;;;;;2.60;2.40;;;;;;;14.36;90.07;98537.95;112273;1193;60242;-84
2021/09/18 05:56:13;;;;;;;3.20;2.80;;;;;;;14.49;88.93;98537.71;112187;1196;65907;-83
2021/09/18 05:58:39;;;;;;;2.60;2.40;;;;;;;14.54;88.96;98537.84;112284;1193;60159;-83
2021/09/18 06:01:06;;;;;;;2.00;1.90;;;;;;;14.55;88.48;98535.76;112277;1193;63700;-83
2021/09/18 06:03:33;;;;;;;2.60;2.10;;;;;;;14.58;88.63;98538.73;112301;1193;60217;-83
2021/09/18 06:05:59;;;;;;;2.60;2.00;;;;;;;14.64;88.20;98541.75;112254;1193;60172;-83
2021/09/18 06:08:27;;;;;;;2.80;2.60;;;;;;;14.66;87.64;98542.06;112264;1194;65205;-83
2021/09/18 06:10:54;;;;;;;2.80;2.00;;;;;;;14.59;87.73;98544.15;112317;1193;60236;-84
2021/09/18 06:13:21;;;;;;;1.90;1.70;;;;;;;14.53;87.20;98544.16;112243;1193;63673;-83
2021/09/18 06:15:48;;;;;;;1.60;1.50;;;;;;;14.48;87.31;98540.84;112213;1193;60255;-84
2021/09/18 06:18:14;;;;;;;4.00;1.80;;;;;;;14.45;86.75;98540.22;112229;1193;59754;-85
2021/09/18 06:20:41;;;;;;;1.70;1.60;;;;;;;14.43;87.12;98542.20;112265;1193;65212;-83
2021/09/18 06:23:08;;;;;;;2.00;1.70;;;;;;;14.45;87.29;98542.03;112210;1193;60338;-82
2021/09/18 06:25:34;;;;;;;2.80;1.80;;;;;;;14.46;87.30;98544.10;112297;1193;63862;-83
2021/09/18 06:28:01;;;;;;;2.90;2.00;;;;;;;14.40;87.10;98544.96;112264;1197;60392;-84
2021/09/18 06:30:28;;;;;;;1.40;1.30;;;;;;;14.31;87.12;98550.98;112416;1193;60262;-81
2021/09/18 06:32:55;;;;;;;1.50;1.40;;;;;;;14.22;87.03;98552.88;112441;1193;65210;-83
2021/09/18 06:35:21;;;;;;;1.90;1.40;;;;;;;14.20;87.45;98555.66;112320;1193;60155;-82
2021/09/18 06:37:48;;;;;;;1.70;1.60;;;;;;;14.21;87.04;98550.24;112682;1193;63649;-84
2021/09/18 06:40:18;;;;;;;2.10;1.60;;;;;;;14.12;86.92;98557.30;112410;1193;60258;-85
2021/09/18 06:42:46;;;;;;;3.60;1.60;;;;;;;13.99;86.84;98560.18;112295;1193;60687;-85
2021/09/18 06:45:14;;;;;;;1.90;1.60;;;;;;;13.91;86.87;98560.97;112275;1193;63631;-85
2021/09/18 06:47:41;;;;;;;1.50;1.30;;;;;;;13.84;87.17;98563.52;112270;1187;60951;-84
2021/09/18 06:50:08;;;;;;;1.40;1.30;;;;;;;13.85;87.35;98563.92;112296;1193;64186;-84
2021/09/18 06:52:35;;;;;;;2.50;1.60;;;;;;;13.85;86.88;98567.73;112225;1181;60166;-85
2021/09/18 06:55:03;;;;;;;2.50;1.70;;;;;;;13.82;86.97;98565.81;112289;1186;60185;-84
2021/09/18 06:57:32;;;;;;;1.40;1.30;;;;;;;13.82;87.02;98565.22;112223;1193;65052;-85
2021/09/18 06:59:58;;;;;;;1.40;1.10;;;;;;;13.86;87.05;98564.79;112337;1193;60223;-84
2021/09/18 07:02:25;;;;;;;2.70;1.40;;;;;;;13.96;87.00;98565.33;112231;1193;64002;-84
2021/09/18 07:04:52;;;;;;;1.40;1.20;;;;;;;14.08;87.08;98566.39;112220;1193;60229;-83
2021/09/18 07:07:18;;;;;;;2.20;1.10;;;;;;;14.25;86.94;98567.06;112282;1193;60248;-83
2021/09/18 07:09:45;;;;;;;1.50;1.40;;;;;;;14.45;86.81;98563.97;112292;1193;65075;-83
2021/09/18 07:12:12;;;;;;;3.30;2.70;;;;;;;14.64;85.93;98563.92;112255;1193;60143;-83
2021/09/18 07:14:38;;;;;;;1.70;1.60;;;;;;;14.76;85.40;98564.98;112245;1193;63993;-85
2021/09/18 07:17:05;;;;;;;2.70;1.70;;;;;;;14.85;84.82;98556.80;112248;1196;60237;-83
2021/09/18 07:19:32;;;;;;;1.40;1.20;;;;;;;14.95;84.40;98554.67;112295;1193;60258;-84
2021/09/18 07:21:58;;;;;;;2.70;1.40;;;;;;;15.02;84.45;98555.98;112330;1193;63575;-83
2021/09/18 07:24:25;;;;;;;2.60;1.50;;;;;;;15.16;84.57;98549.70;112268;1193;60172;-85
2021/09/18 07:26:52;;;;;;;1.60;1.20;;;;;;;15.30;83.33;98551.61;112303;1193;65066;-87
2021/09/18 07:29:19;;;;;;;2.00;1.40;;;;;;;15.35;82.71;98553.73;112329;1193;60243;-83
2021/09/18 07:31:45;;;;;;;1.20;1.10;;;;;;;15.41;82.59;98552.34;112291;1193;60146;-86
2021/09/18 07:34:12;;;;;;;2.10;1.10;;;;;;;15.47;82.40;98557.36;112303;1196;63556;-84
2021/09/18 07:36:38;;;;;;;1.60;1.40;;;;;;;15.55;81.96;98557.47;112284;1195;60262;-84
2021/09/18 07:39:05;;;;;;;2.00;1.50;;;;;;;15.61;81.04;98560.36;112246;1196;63251;-84
2021/09/18 07:41:32;;;;;;;1.60;1.30;;;;;;;15.63;80.90;98560.14;112286;1195;60191;-84
2021/09/18 07:44:01;;;;;;;1.40;1.30;;;;;;;15.58;80.81;98564.20;112276;1194;60252;-84
2021/09/18 07:46:29;;;;;;;1.20;1.10;;;;;;;15.59;81.19;98564.10;112278;1187;64893;-83
2021/09/18 07:48:57;;;;;;;2.60;1.70;;;;;;;15.62;81.15;98561.14;112277;1196;60182;-84
2021/09/18 07:51:24;;;;;;;2.10;1.40;;;;;;;15.67;81.43;98560.98;112313;1195;63716;-83
2021/09/18 07:53:51;;;;;;;1.70;1.60;;;;;;;15.69;81.24;98563.34;112239;1194;60159;-83
2021/09/18 07:56:18;;;;;;;2.20;1.70;;;;;;;15.76;81.03;98561.30;112280;1195;60153;-83
2021/09/18 07:58:45;;;;;;;2.50;1.50;;;;;;;15.78;80.25;98562.30;112229;1195;63813;-83
2021/09/18 08:01:12;;;;;;;2.40;1.20;;;;;;;15.83;80.18;98558.77;112249;1196;60226;-83
2021/09/18 08:03:38;;;;;;;3.20;1.90;;;;;;;16.06;80.55;98560.30;112253;1196;63988;-83
2021/09/18 08:06:05;;;;;;;2.00;1.60;;;;;;;16.37;79.70;98560.01;112256;1196;60252;-84
2021/09/18 08:08:32;;;;;;;2.20;2.10;;;;;;;16.61;78.51;98556.98;112271;1196;60228;-84
2021/09/18 08:10:59;;;;;;;2.80;2.50;;;;;;;16.68;77.81;98558.02;112241;1194;63573;-83
2021/09/18 08:13:25;;;;;;;2.00;1.90;;;;;;;16.82;78.04;98555.13;112120;1196;60168;-84
2021/09/18 08:15:52;;;;;;;2.40;2.20;;;;;;;16.96;78.08;98554.60;112164;1196;62653;-84
2021/09/18 08:18:19;;;;;;;2.90;2.20;;;;;;;17.05;77.13;98554.03;112401;1195;60690;-87
2021/09/18 08:20:46;;;;;;;2.30;1.70;;;;;;;17.06;77.24;98556.27;112663;1196;60344;-87
2021/09/18 08:23:12;;;;;;;2.70;1.80;;;;;;;17.14;77.63;98555.26;112264;1193;65249;-86
2021/09/18 08:25:39;;;;;;;1.60;1.50;;;;;;;17.14;75.34;98559.58;112462;1194;60168;-91
2021/09/18 08:28:06;;;;;;;1.20;1.20;;;;;;;17.14;75.72;98560.35;112314;1195;62672;-89
2021/09/18 08:30:35;;;;;;;1.50;1.30;;;;;;;17.16;75.30;98557.46;112285;1196;60294;-83
2021/09/18 08:33:02;;;;;;;1.40;1.30;;;;;;;17.14;75.22;98561.95;112487;1195;60227;-91
2021/09/18 08:35:29;;;;;;;2.10;1.80;;;;;;;17.14;75.30;98565.77;112008;1196;65216;-85
2021/09/18 08:38:14;;;;;;;2.10;1.60;;;;;;;17.14;75.43;98568.02;112524;1196;60106;-92
2021/09/18 08:40:41;;;;;;;2.00;1.60;;;;;;;17.21;74.88;98565.20;112847;1195;64496;-91
2021/09/18 08:43:08;;;;;;;2.10;1.50;;;;;;;17.23;74.58;98563.31;112320;1195;60281;-90
2021/09/18 08:45:35;;;;;;;2.70;1.90;;;;;;;17.15;74.31;98566.84;112557;1195;60252;-89
2021/09/18 08:48:06;;;;;;;1.60;1.40;;;;;;;17.06;73.42;98570.40;112337;1196;63529;-81
2021/09/18 08:50:35;;;;;;;1.70;1.40;;;;;;;16.88;73.39;98570.41;112737;1196;60114;-87
2021/09/18 08:53:02;;;;;;;2.10;1.60;;;;;;;16.87;73.92;98569.80;112231;1196;64032;-85
2021/09/18 08:55:30;;;;;;;2.20;1.40;;;;;;;16.86;74.09;98573.71;112201;1195;60172;-85
2021/09/18 08:57:57;;;;;;;1.70;1.60;;;;;;;16.87;74.05;98575.38;112315;1196;60182;-85
2021/09/18 09:00:30;;;;;;;2.90;2.00;;;;;;;16.91;73.71;98576.25;112271;1197;63811;-85
2021/09/18 09:02:59;;;;;;;1.70;1.50;;;;;;;17.01;73.91;98572.36;112240;1195;60121;-84
2021/09/18 09:05:29;;;;;;;2.40;2.10;;;;;;;17.12;73.13;98574.50;112265;1196;62626;-85
2021/09/18 09:08:12;;;;;;;;;;;;;;;17.12;71.25;98573.59;112253;1195;60226;-84
2021/09/18 09:10:43;;;;;;;2.00;1.90;;;;;;;17.06;71.87;98573.51;112282;1187;60248;-85
2021/09/18 09:13:21;;;;;;;1.60;1.50;;;;;;;17.15;72.35;98574.90;112299;1196;65259;-84
2021/09/18 09:15:51;;;;;;;2.40;2.20;;;;;;;17.35;73.02;98573.04;112240;1195;60255;-84
2021/09/18 09:18:22;;;;;;;2.40;2.20;;;;;;;17.50;70.94;98568.44;112251;1196;63992;-84
2021/09/18 09:21:06;;;;;;;3.70;2.10;;;;;;;17.45;70.84;98568.98;112305;1195;60230;-85
2021/09/18 09:23:33;;;;;;;2.60;1.80;;;;;;;17.58;72.04;98565.02;112294;1196;60249;-84
2021/09/18 09:26:01;;;;;;;4.00;2.20;;;;;;;17.81;72.18;98566.23;112251;1195;65272;-85
2021/09/18 09:28:33;;;;;;;2.20;2.00;;;;;;;17.98;71.23;98563.59;112301;1196;60285;-84
2021/09/18 09:31:24;;;;;;;2.20;2.00;;;;;;;18.11;70.92;98562.17;112574;1195;62700;-87
2021/09/18 09:34:18;;;;;;;2.70;2.50;;;;;;;18.17;69.90;98562.27;112309;1195;60636;-87
2021/09/18 09:36:50;;;;;;;2.30;2.10;;;;;;;18.05;67.34;98563.70;112241;1184;60225;-87
2021/09/18 09:39:20;;;;;;;2.30;2.10;;;;;;;17.91;68.24;98566.77;112190;1195;63698;-85
2021/09/18 09:41:49;;;;;;;2.40;2.10;;;;;;;18.01;69.30;98566.54;112291;1196;60252;-85
2021/09/18 09:44:19;;;;;;;2.90;2.40;;;;;;;18.28;69.65;98563.83;112213;1196;64011;-85
2021/09/18 09:47:04;;;;;;;;;;;;;;;18.46;69.35;98563.70;112252;1195;60163;-85
2021/09/18 09:49:45;;;;;;;4.00;2.50;;;;;;;18.55;67.67;98559.02;112302;1187;60259;-85
2021/09/18 09:52:16;;;;;;;2.20;2.00;;;;;;;18.57;67.28;98557.48;112228;1196;65066;-84
2021/09/18 09:54:43;;;;;;;2.60;2.30;;;;;;;18.64;67.19;98553.74;112281;1181;60252;-85
2021/09/18 09:57:12;;;;;;;4.40;3.30;;;;;;;18.80;67.68;98550.04;112264;1196;64084;-86
2021/09/18 09:59:40;;;;;;;7.40;2.20;;;;;;;18.97;67.52;98543.52;112263;1195;60165;-83
2021/09/18 10:02:12;;;;;;;2.30;2.10;;;;;;;19.07;66.80;98542.02;112208;1195;60229;-83
2021/09/18 10:04:39;;;;;;;3.90;1.90;;;;;;;19.05;66.07;98541.14;112335;1195;63870;-84
2021/09/18 10:07:08;;;;;;;3.20;1.90;;;;;;;19.09;66.34;98538.58;112220;1196;60253;-84
2021/09/18 10:09:36;;;;;;;2.20;2.00;;;;;;;19.10;64.76;98542.99;112284;1196;64006;-84
2021/09/18 10:12:04;;;;;;;2.10;1.80;;;;;;;18.98;64.05;98539.08;112311;1196;60213;-85
2021/09/18 10:14:32;;;;;;;2.50;1.90;;;;;;;18.83;64.35;98545.36;112231;1195;60242;-86
2021/09/18 10:16:59;;;;;;;2.00;1.90;;;;;;;18.78;64.18;98544.46;112315;1196;66246;-86
2021/09/18 10:24:56;;;;;;;2.00;1.90;;;;;;;18.48;63.84;98547.48;112263;1195;60252;-85
2021/09/18 10:27:26;;;;;;;2.40;1.90;;;;;;;18.35;64.65;98546.50;112266;1195;60229;-85
2021/09/18 10:29:54;;;;;;;2.10;1.90;;;;;;;18.28;65.01;98553.81;112245;1196;64922;-84
2021/09/18 10:32:23;;;;;;;2.00;1.90;;;;;;;18.15;65.57;98550.33;112235;1194;60591;-84
2021/09/18 10:35:14;;;;;;;2.30;2.10;;;;;;;18.08;66.34;98551.38;112253;1197;64014;-85
2021/09/18 10:37:41;;;;;;;2.60;2.40;;;;;;;18.06;65.78;98554.13;112328;1195;60350;-85
2021/09/18 10:40:14;;;;;;;3.10;2.20;;;;;;;17.98;65.32;98553.11;112244;1195;60199;-86
2021/09/18 10:42:44;;;;;;;2.50;2.30;;;;;;;17.87;65.70;98551.73;112274;1195;65213;-85
2021/09/18 10:45:13;;;;;;;2.60;2.40;;;;;;;17.84;65.40;98552.63;112304;1194;60262;-86
2021/09/18 10:47:42;;;;;;;2.70;2.50;;;;;;;17.74;64.96;98556.26;112224;1195;63983;-85
2021/09/18 10:50:21;;;;;;;3.50;3.00;;;;;;;17.61;65.18;98554.91;112225;1197;60261;-84
2021/09/18 10:53:08;;;;;;;3.00;2.70;;;;;;;17.54;65.44;98552.41;112221;1197;60569;-85
2021/09/18 10:55:55;;;;;;;3.50;2.80;;;;;;;17.51;65.39;98551.12;112262;1195;65195;-85
2021/09/18 10:58:24;;;;;;;2.70;2.50;;;;;;;17.45;65.98;98555.40;112297;1195;60681;-86
2021/09/18 11:01:00;;;;;;;2.90;2.60;;;;;;;17.48;66.13;98556.27;112363;1194;64119;-86
2021/09/18 11:03:33;;;;;;;3.60;2.90;;;;;;;17.45;66.10;98557.12;112623;1195;60266;-87
2021/09/18 11:06:00;;;;;;;2.80;2.60;;;;;;;17.44;66.01;98558.02;112384;1195;60223;-86
2021/09/18 11:08:30;;;;;;;3.80;2.90;;;;;;;17.45;65.80;98557.52;111912;1196;65225;-86
2021/09/18 11:10:56;;;;;;;;;;;;;;;17.48;66.34;98551.48;112244;1195;61840;-86
2021/09/18 11:13:33;;;;;;;4.00;2.80;;;;;;;17.60;67.04;98550.94;112243;1192;60253;-84
2021/09/18 11:16:05;;;;;;;2.90;2.70;;;;;;;17.70;67.05;98550.08;112030;1196;60268;-84
2021/09/18 11:18:42;;;;;;;2.80;2.40;;;;;;;17.57;67.07;98552.31;111952;1195;60135;-85
2021/09/18 11:21:24;;;;;;;2.50;2.30;;;;;;;17.28;67.12;98554.73;112185;1195;64914;-86
2021/09/18 11:24:01;;;;;;;2.40;2.10;;;;;;;16.96;68.03;98558.93;112264;1196;60242;-86
2021/09/18 11:26:44;;;;;;;2.90;2.40;;;;;;;16.74;68.56;98561.05;112267;1196;65005;-86
2021/09/18 11:29:17;;;;;;;2.70;2.50;;;;;;;16.53;69.08;98564.89;112191;1196;60249;-86
2021/09/18 11:31:54;;;;;;;3.40;2.80;;;;;;;16.36;69.26;98564.05;112287;1195;60233;-86
2021/09/18 11:34:27;;;;;;;2.90;2.60;;;;;;;16.27;69.65;98562.04;112227;1195;63901;-86
2021/09/18 11:36:56;;;;;;;2.70;2.30;;;;;;;16.27;69.50;98562.80;112291;1196;60383;-85